M I D A S
Marine Information and Data Acquisition System
Tripno 1863 of the Zeeleeuw from 2010-04-22 06:42:15 to 2010-04-22 15:06:58
Back to CruiseResearch ActivitiesStationsMapUnderway DataData graphs

EquipmentUnitsComment
TimeDGPSUTC
LatitudeDGPSDM.mWGS84
LongitudeDGPSDM.mWGS84
HeadingGyrodeg 
SOGDGPSknotsSpeed over ground
COGDGPSdegCourse over ground
DepthEcho soundermeters200 kHz
Missing or incorrect values are displayed as -999
Navigation data collected by the RV Zeeleeuw from 2010-04-22 06:23:39 to 2010-04-22 15:15:14
Time Latitude Longitude Heading SOG COG Depth
2010-04-22 06:24:46 51°13.678 2°55.89 110.7 4 292 -999
2010-04-22 06:25:46 51°13.702 2°55.786 114 3.9 293 -999
2010-04-22 06:26:46 51°13.724 2°55.721 133.2 1.1 307 -999
2010-04-22 06:27:46 51°13.776 2°55.669 154.6 5.5 334 -999
2010-04-22 06:28:46 51°13.858 2°55.618 171.5 4.7 347 -999
2010-04-22 06:29:46 51°13.921 2°55.628 208.2 3.2 23 5.2
2010-04-22 06:30:46 51°13.949 2°55.657 247.3 0.9 272 -999
2010-04-22 06:31:45 51°13.983 2°55.574 314.9 6.5 320 -999
2010-04-22 06:32:45 51°14.088 2°55.475 333.2 7.7 332 -999
2010-04-22 06:33:46 51°14.204 2°55.37 331.3 8.2 329 13.1
2010-04-22 06:34:43 51°14.318 2°55.247 325.7 9.6 323 13.2
2010-04-22 06:35:42 51°14.453 2°55.095 327.4 10.7 326 13.4
2010-04-22 06:36:42 51°14.604 2°54.939 316.4 10.8 322 13.8
2010-04-22 06:37:42 51°14.748 2°54.741 315.1 13.1 320 14.5
2010-04-22 06:38:42 51°14.923 2°54.515 319.1 13.7 325 12.4
2010-04-22 06:39:42 51°15.117 2°54.317 324.1 13.9 326 12.5
2010-04-22 06:40:43 51°15.312 2°54.109 324.5 13.9 327 12.5
2010-04-22 06:41:42 51°15.503 2°53.911 323.7 13.9 326 13.6
2010-04-22 06:42:42 51°15.694 2°53.709 322.1 13.7 325 13
2010-04-22 06:43:42 51°15.877 2°53.491 319.5 13.8 323 14.2
2010-04-22 06:44:42 51°16.07 2°53.293 330.3 14.1 336 14.3
2010-04-22 06:45:42 51°16.289 2°53.156 337.8 14.2 340 14.3
2010-04-22 06:46:42 51°16.512 2°53.028 337.4 14.3 340 14.3
2010-04-22 06:47:43 51°16.734 2°52.893 334 13.9 338 12.9
2010-04-22 06:48:42 51°16.944 2°52.75 333.4 14 335 11.8
2010-04-22 06:49:42 51°17.158 2°52.599 336.2 14.2 343 11.8
2010-04-22 06:50:42 51°17.396 2°52.561 357.9 14.7 359 13.1
2010-04-22 06:51:42 51°17.637 2°52.555 357.4 14.6 359 12.7
2010-04-22 06:52:42 51°17.877 2°52.542 356.2 14.6 358 13.1
2010-04-22 06:53:42 51°18.117 2°52.526 356.9 14.5 357 12.6
2010-04-22 06:54:42 51°18.357 2°52.502 355 14.4 357 13.5
2010-04-22 06:55:42 51°18.595 2°52.479 355.7 14.2 356 13.4
2010-04-22 06:56:42 51°18.833 2°52.455 356 14.4 357 14.1
2010-04-22 06:57:42 51°19.07 2°52.431 355.2 13.8 356 14.7
2010-04-22 06:58:42 51°19.307 2°52.405 355.4 14.4 355 16.8
2010-04-22 06:59:42 51°19.547 2°52.399 0.5 14.1 1 16.6
2010-04-22 07:00:42 51°19.789 2°52.412 0.3 14.6 2 18
2010-04-22 07:01:42 51°20.032 2°52.424 0.1 14.7 2 18.4
2010-04-22 07:02:42 51°20.274 2°52.436 0.4 14.5 2 18.3
2010-04-22 07:03:42 51°20.514 2°52.442 0.1 14.1 1 16.9
2010-04-22 07:04:42 51°20.751 2°52.474 8.5 14.4 10 16.2
2010-04-22 07:05:42 51°20.986 2°52.549 11.1 14.5 12 17.2
2010-04-22 07:06:42 51°21.221 2°52.626 10.9 14.5 11 17.8
2010-04-22 07:07:42 51°21.458 2°52.703 10.6 14.6 12 19.6
2010-04-22 07:08:42 51°21.693 2°52.778 10.2 14.4 10 21.8
2010-04-22 07:09:42 51°21.931 2°52.817 1.9 14.3 1 23.7
2010-04-22 07:10:42 51°22.17 2°52.798 352.1 14.4 354 26.1
2010-04-22 07:11:42 51°22.407 2°52.755 352.3 14.3 354 25.1
2010-04-22 07:12:42 51°22.643 2°52.716 352.8 14.4 353 24.2
2010-04-22 07:13:42 51°22.884 2°52.68 352.7 14.6 356 24.5
2010-04-22 07:14:42 51°23.125 2°52.648 353.3 14.7 355 24.5
2010-04-22 07:15:42 51°23.366 2°52.611 352.6 14.6 349 22.6
2010-04-22 07:16:42 51°23.611 2°52.58 353 14.6 355 20.7
2010-04-22 07:17:42 51°23.854 2°52.548 353.6 14.5 356 17.4
2010-04-22 07:18:42 51°24.098 2°52.518 352.8 14.5 356 21
2010-04-22 07:19:42 51°24.341 2°52.487 353.1 14.8 355 20.6
2010-04-22 07:20:42 51°24.583 2°52.456 353.5 14.6 356 20.8
2010-04-22 07:21:42 51°24.824 2°52.427 353.7 14.5 356 25
2010-04-22 07:22:42 51°25.065 2°52.398 353.2 14.5 356 26
2010-04-22 07:23:42 51°25.306 2°52.368 353.4 14.7 355 26.4
2010-04-22 07:24:42 51°25.55 2°52.33 352.9 14.6 354 26.4
2010-04-22 07:25:42 51°25.79 2°52.289 353.6 14.3 355 27.7
2010-04-22 07:26:42 51°26.029 2°52.256 355.2 14.7 356 29
2010-04-22 07:27:42 51°26.274 2°52.256 -999 14.8 -999 29.4
2010-04-22 07:28:42 51°26.519 2°52.258 0.1 14.6 1 27.9
2010-04-22 07:29:42 51°26.762 2°52.259 359.4 14.8 -999 29.2
2010-04-22 07:30:42 51°27.004 2°52.261 359.1 14.5 1 27.3
2010-04-22 07:31:42 51°27.246 2°52.264 359.4 14.4 2 23.5
2010-04-22 07:32:42 51°27.488 2°52.268 359.6 14.6 1 23.7
2010-04-22 07:33:42 51°27.728 2°52.272 359.2 14.4 359 23.2
2010-04-22 07:34:42 51°27.968 2°52.266 359.4 14.7 -999 23.2
2010-04-22 07:35:42 51°28.209 2°52.262 359.7 14.4 359 24.7
2010-04-22 07:36:42 51°28.452 2°52.258 359.8 14.5 358 28.7
2010-04-22 07:37:42 51°28.693 2°52.258 359.1 14.4 -999 29.9
2010-04-22 07:38:42 51°28.934 2°52.259 359.4 14.7 1 32
2010-04-22 07:39:42 51°29.176 2°52.26 359.4 14.8 -999 30.5
2010-04-22 07:40:42 51°29.421 2°52.26 359.5 14.3 -999 31.3
2010-04-22 07:41:42 51°29.666 2°52.257 358.6 14.7 -999 31.7
2010-04-22 07:42:42 51°29.912 2°52.256 358.9 14.7 1 31.6
2010-04-22 07:43:42 51°30.155 2°52.255 359.4 14.5 -999 31.1
2010-04-22 07:44:42 51°30.401 2°52.252 358.9 15 -999 30.6
2010-04-22 07:45:42 51°30.65 2°52.25 359 14.9 1 20.1
2010-04-22 07:46:42 51°30.894 2°52.248 358.9 14.3 -999 21.8
2010-04-22 07:47:42 51°31.059 2°52.256 2.3 7.3 7 20.9
2010-04-22 07:48:42 51°31.161 2°52.328 38.1 6.5 38 23.7
2010-04-22 07:49:42 51°31.227 2°52.46 65.2 6.3 58 22.7
2010-04-22 07:50:42 51°31.293 2°52.568 33.6 4.7 34 23.6
2010-04-22 07:51:42 51°31.343 2°52.62 24.5 2 44 23.2
2010-04-22 07:52:46 51°31.343 2°52.632 32.9 0.6 186 23.2
2010-04-22 07:53:45 51°31.336 2°52.629 40.1 0.1 175 23.1
2010-04-22 07:54:43 51°31.336 2°52.629 47.1 0.2 114 23.7
2010-04-22 07:55:42 51°31.34 2°52.63 53.9 0.3 23 23.1
2010-04-22 07:56:42 51°31.347 2°52.633 61.3 0.4 30 22.5
2010-04-22 07:57:42 51°31.355 2°52.638 72.4 0.6 13 20.5
2010-04-22 07:58:42 51°31.366 2°52.642 87.9 0.8 10 21.3
2010-04-22 07:59:42 51°31.379 2°52.645 112.6 0.5 357 23.3
2010-04-22 08:00:42 51°31.39 2°52.655 143.3 0.4 63 22.8
2010-04-22 08:01:42 51°31.387 2°52.671 180.4 0.8 127 23.1
2010-04-22 08:02:42 51°31.378 2°52.685 187.9 0.6 137 22.8
2010-04-22 08:03:42 51°31.37 2°52.691 203.5 0.3 204 22
2010-04-22 08:04:42 51°31.366 2°52.691 215.7 0.1 155 22.6
2010-04-22 08:05:42 51°31.367 2°52.688 223.2 0.2 333 22.1
2010-04-22 08:06:42 51°31.37 2°52.687 230 0.4 348 22.4
2010-04-22 08:07:42 51°31.374 2°52.688 232.2 0.3 11 22.9
2010-04-22 08:08:42 51°31.379 2°52.688 234.1 0.5 328 22.8
2010-04-22 08:09:42 51°31.38 2°52.682 233.1 0.4 287 22.7
2010-04-22 08:10:42 51°31.38 2°52.675 232.3 0.3 272 22.8
2010-04-22 08:11:42 51°31.381 2°52.671 231 0.2 144 23.5
2010-04-22 08:12:42 51°31.382 2°52.669 229.2 0.2 280 23.3
2010-04-22 08:13:42 51°31.383 2°52.668 227.8 -999 91 22.9
2010-04-22 08:14:42 51°31.383 2°52.67 222.2 -999 216 23.3
2010-04-22 08:15:42 51°31.382 2°52.669 221.7 -999 205 22.6
2010-04-22 08:16:42 51°31.381 2°52.67 221.9 0.1 299 22.8
2010-04-22 08:17:42 51°31.381 2°52.67 223.1 0.5 321 22.7
2010-04-22 08:18:42 51°31.383 2°52.671 222.5 0.2 352 22.7
2010-04-22 08:19:42 51°31.383 2°52.672 221 0.3 122 22.6
2010-04-22 08:20:42 51°31.382 2°52.672 222.3 0.3 290 22.8
2010-04-22 08:21:42 51°31.381 2°52.671 220.7 0.2 309 22.7
2010-04-22 08:22:42 51°31.382 2°52.671 218.5 0.3 305 22.7
2010-04-22 08:23:42 51°31.381 2°52.673 216.8 -999 109 22.7
2010-04-22 08:24:42 51°31.382 2°52.672 216.8 0.1 298 22.1
2010-04-22 08:25:42 51°31.381 2°52.674 215.6 0.1 20 22.5
2010-04-22 08:26:42 51°31.382 2°52.675 214.9 0.1 66 22.8
2010-04-22 08:27:42 51°31.381 2°52.677 214.3 0.4 123 23.3
2010-04-22 08:28:42 51°31.381 2°52.677 214.4 0.1 109 22.8
2010-04-22 08:29:42 51°31.38 2°52.678 211.4 0.1 292 22.7
2010-04-22 08:30:42 51°31.379 2°52.679 208.7 0.2 160 22.4
2010-04-22 08:31:42 51°31.377 2°52.68 207.9 0.1 246 22.1
2010-04-22 08:32:42 51°31.376 2°52.681 210 0.2 314 21.9
2010-04-22 08:33:42 51°31.376 2°52.68 216.4 0.2 296 22.3
2010-04-22 08:34:42 51°31.377 2°52.68 220 0.1 100 22.7
2010-04-22 08:35:42 51°31.38 2°52.679 222.9 0.1 89 22.3
2010-04-22 08:36:42 51°31.382 2°52.679 223.9 0.1 150 22.7
2010-04-22 08:37:42 51°31.382 2°52.676 221.7 0.1 227 22.5
2010-04-22 08:38:42 51°31.382 2°52.673 220.1 -999 222 22.4
2010-04-22 08:39:42 51°31.381 2°52.671 219.1 0.3 295 22.5
2010-04-22 08:40:42 51°31.381 2°52.67 218.6 0.1 294 22.6
2010-04-22 08:41:42 51°31.383 2°52.669 217.3 0.1 350 22.2
2010-04-22 08:42:42 51°31.383 2°52.671 214.1 0.2 288 22.6
2010-04-22 08:43:42 51°31.383 2°52.672 213.5 0.4 140 23.1
2010-04-22 08:44:42 51°31.374 2°52.665 210 0.9 202 22.2
2010-04-22 08:45:42 51°31.36 2°52.653 208.6 0.9 221 19.7
2010-04-22 08:46:42 51°31.35 2°52.644 207.8 0.5 214 20.8
2010-04-22 08:47:42 51°31.344 2°52.641 206.6 0.2 179 22.5
2010-04-22 08:48:42 51°31.317 2°52.661 149.4 4.2 126 23.1
2010-04-22 08:49:42 51°31.344 2°52.829 57.8 10.4 49 22.7
2010-04-22 08:50:42 51°31.515 2°53.064 43.1 14.7 41 22.6
2010-04-22 08:51:42 51°31.701 2°53.325 44.1 14.8 42 22.6
2010-04-22 08:53:39 51°32.061 2°53.84 44.4 14.9 43 21.4
2010-04-22 08:55:35 51°32.419 2°54.356 45.1 15 43 22.8
2010-04-22 08:56:35 51°32.607 2°54.618 38.8 15 37 25
2010-04-22 08:57:35 51°32.823 2°54.815 28.4 15 28 24.3
2010-04-22 08:58:35 51°33.038 2°55.012 33.5 14.9 32 26
2010-04-22 08:59:35 51°33.239 2°55.223 38.5 13.2 41 23.8
2010-04-22 09:00:35 51°33.302 2°55.465 91.9 8 89 27.6
2010-04-22 09:01:35 51°33.277 2°55.635 128.5 5.3 121 27.8
2010-04-22 09:02:35 51°33.239 2°55.718 140.1 2.9 130 27.6
2010-04-22 09:03:35 51°33.222 2°55.776 136.2 2.2 108 27.3
2010-04-22 09:04:35 51°33.212 2°55.821 142.3 1.5 115 27.2
2010-04-22 09:05:35 51°33.208 2°55.859 144.8 1.3 94 23.8
2010-04-22 09:06:35 51°33.207 2°55.891 147.3 1.2 87 24.3
2010-04-22 09:07:35 51°33.208 2°55.919 149.2 0.7 90 25.1
2010-04-22 09:08:35 51°33.21 2°55.945 150.7 1 81 25.7
2010-04-22 09:09:35 51°33.213 2°55.967 152.9 0.9 76 26.3
2010-04-22 09:10:35 51°33.216 2°55.989 153.4 0.9 71 26.2
2010-04-22 09:11:35 51°33.22 2°56.01 154.7 0.7 72 26.6
2010-04-22 09:12:35 51°33.224 2°56.029 156.9 1 72 27.1
2010-04-22 09:13:35 51°33.228 2°56.047 159.8 0.7 67 27.3
2010-04-22 09:14:35 51°33.234 2°56.063 163.9 0.6 56 27.4
2010-04-22 09:15:35 51°33.239 2°56.079 167.5 0.7 55 28.1
2010-04-22 09:16:35 51°33.241 2°56.096 168 0.9 123 28
2010-04-22 09:17:35 51°33.227 2°56.151 120.8 3.3 101 27.3
2010-04-22 09:18:35 51°33.219 2°56.24 110.2 3.1 94 27
2010-04-22 09:19:35 51°33.219 2°56.312 108.1 2.5 85 27.5
2010-04-22 09:20:35 51°33.223 2°56.372 108.8 2 85 28.3
2010-04-22 09:21:35 51°33.229 2°56.423 107.5 1.9 80 27.3
2010-04-22 09:22:35 51°33.235 2°56.466 108.4 1.6 76 26.4
2010-04-22 09:23:35 51°33.24 2°56.503 111.4 1.2 88 26.2
2010-04-22 09:24:35 51°33.244 2°56.535 115.3 1 83 25.9
2010-04-22 09:25:35 51°33.249 2°56.564 117.2 1.1 80 26.5
2010-04-22 09:26:35 51°33.254 2°56.59 114 0.9 73 26.6
2010-04-22 09:27:35 51°33.261 2°56.614 107 1 61 26.6
2010-04-22 09:28:35 51°33.27 2°56.636 98.9 1 49 27.4
2010-04-22 09:29:35 51°33.281 2°56.657 94.4 0.9 53 27
2010-04-22 09:30:35 51°33.292 2°56.677 89.8 1.1 45 26.5
2010-04-22 09:31:35 51°33.302 2°56.697 88.6 0.9 59 26.4
2010-04-22 09:32:35 51°33.314 2°56.715 84.7 1.2 32 23
2010-04-22 09:33:35 51°33.324 2°56.729 81.4 0.7 35 24.8
2010-04-22 09:34:35 51°33.334 2°56.735 84.2 0.7 9 25.8
2010-04-22 09:35:35 51°33.343 2°56.735 90.4 0.7 5 26
2010-04-22 09:36:35 51°33.351 2°56.736 98.8 0.5 4 26.6
2010-04-22 09:37:35 51°33.361 2°56.741 107.2 0.8 21 26.3
2010-04-22 09:38:35 51°33.37 2°56.748 111.6 0.6 28 26.4
2010-04-22 09:39:35 51°33.378 2°56.76 111.1 0.6 40 26.3
2010-04-22 09:40:35 51°33.387 2°56.773 108 0.8 39 26.7
2010-04-22 09:41:35 51°33.394 2°56.787 108.3 0.7 50 27.4
2010-04-22 09:42:35 51°33.401 2°56.802 105.7 0.6 50 27.7
2010-04-22 09:43:35 51°33.409 2°56.818 99.3 0.8 53 27.7
2010-04-22 09:44:35 51°33.417 2°56.835 95.2 0.9 48 27.7
2010-04-22 09:45:35 51°33.425 2°56.851 92.4 0.7 51 27.2
2010-04-22 09:46:35 51°33.434 2°56.865 91.5 1 22 26.2
2010-04-22 09:47:35 51°33.441 2°56.872 96.3 0.4 18 27.3
2010-04-22 09:48:35 51°33.45 2°56.874 106.8 0.6 3 27.5
2010-04-22 09:49:35 51°33.459 2°56.879 112.9 0.6 27 27.9
2010-04-22 09:50:35 51°33.467 2°56.886 118.9 0.6 47 27.3
2010-04-22 09:51:35 51°33.474 2°56.895 120.5 0.6 46 27.8
2010-04-22 09:52:35 51°33.48 2°56.906 122.7 0.7 51 28
2010-04-22 09:53:35 51°33.484 2°56.92 124.7 0.8 57 27.8
2010-04-22 09:54:35 51°33.49 2°56.929 128.7 0.4 33 28.1
2010-04-22 09:55:35 51°33.499 2°56.934 134.3 0.6 11 28.1
2010-04-22 09:56:35 51°33.51 2°56.937 141.1 0.7 18 28
2010-04-22 09:57:35 51°33.519 2°56.943 142.3 0.7 27 27
2010-04-22 09:58:35 51°33.526 2°56.95 142.3 0.6 41 25.6
2010-04-22 09:59:35 51°33.533 2°56.959 137.6 0.7 57 24
2010-04-22 10:00:35 51°33.539 2°56.97 134.1 0.5 53 24
2010-04-22 10:01:35 51°33.544 2°56.982 131.5 0.3 59 25.6
2010-04-22 10:02:35 51°33.55 2°56.996 130 0.5 61 25.6
2010-04-22 10:03:35 51°33.554 2°57.01 130.9 0.8 56 24.1
2010-04-22 10:04:35 51°33.557 2°57.024 133.5 0.6 74 23.7
2010-04-22 10:05:35 51°33.56 2°57.036 134.4 0.4 95 24.6
2010-04-22 10:06:35 51°33.563 2°57.05 136.5 0.6 76 25.8
2010-04-22 10:07:35 51°33.565 2°57.064 135.3 0.6 76 26.1
2010-04-22 10:08:35 51°33.564 2°57.076 135.7 0.5 84 26.8
2010-04-22 10:09:35 51°33.565 2°57.089 134.5 0.5 89 27
2010-04-22 10:10:35 51°33.545 2°57.11 175.2 3 177 26.3
2010-04-22 10:11:35 51°33.453 2°57.043 217.3 8.9 221 26.6
2010-04-22 10:12:35 51°33.317 2°56.867 222.2 11 223 25.3
2010-04-22 10:13:35 51°33.195 2°56.642 226.1 11.4 225 25.3
2010-04-22 10:14:35 51°33.116 2°56.47 223.9 5.8 223 26.3
2010-04-22 10:15:35 51°33.081 2°56.377 246.9 3.1 246 25.4
2010-04-22 10:16:35 51°33.071 2°56.31 254.9 2.2 263 25.1
2010-04-22 10:17:35 51°33.071 2°56.273 266.9 0.4 61 24.1
2010-04-22 10:18:39 51°33.073 2°56.362 275.8 4.7 90 -999
2010-04-22 10:19:38 51°33.065 2°56.495 287.5 4.4 95 25.7
2010-04-22 10:20:36 51°33.054 2°56.584 295.1 3 102 25.3
2010-04-22 10:21:35 51°33.041 2°56.646 304.2 2.1 113 24.8
2010-04-22 10:22:35 51°33.029 2°56.692 304.5 1.8 114 24.6
2010-04-22 10:23:35 51°33.02 2°56.732 299.4 1.4 115 24.6
2010-04-22 10:24:35 51°33.015 2°56.768 291.9 1.3 104 23.5
2010-04-22 10:25:35 51°33.013 2°56.801 283.5 1.1 100 23.5
2010-04-22 10:26:35 51°33.013 2°56.831 274.5 1.1 71 23.8
2010-04-22 10:27:35 51°33.017 2°56.856 263.6 0.9 76 23.7
2010-04-22 10:28:35 51°33.023 2°56.877 255.3 0.9 58 24
2010-04-22 10:29:35 51°33.027 2°56.896 249.2 0.7 77 24.1
2010-04-22 10:30:35 51°33.033 2°56.91 241.1 0.5 77 24.5
2010-04-22 10:31:35 51°33.038 2°56.922 234.5 0.5 87 24.9
2010-04-22 10:32:35 51°33.042 2°56.929 228.9 0.4 81 24.7
2010-04-22 10:33:35 51°33.045 2°56.935 223 0.2 34 24.7
2010-04-22 10:34:35 51°33.047 2°56.94 217.1 0.3 337 24.3
2010-04-22 10:35:35 51°33.048 2°56.945 214.6 0.3 80 24.9
2010-04-22 10:36:35 51°33.047 2°56.948 217.1 0.3 116 24.6
2010-04-22 10:37:35 51°33.047 2°56.949 223.4 -999 81 24.7
2010-04-22 10:38:35 51°33.047 2°56.947 234.3 0.1 269 24.7
2010-04-22 10:39:35 51°33.047 2°56.944 241.2 0.2 164 24.7
2010-04-22 10:40:35 51°33.044 2°56.929 249.7 2.5 245 25
2010-04-22 10:41:35 51°33.03 2°56.792 261.8 6.9 262 23.9
2010-04-22 10:42:35 51°33.012 2°56.563 260.9 9.5 259 24.3
2010-04-22 10:43:35 51°33.011 2°56.307 273.3 9.9 274 25.6
2010-04-22 10:44:35 51°33.051 2°56.063 289.9 8.3 289 22.6
2010-04-22 10:45:35 51°33.069 2°55.913 263.9 3.7 265 25.8
2010-04-22 10:46:35 51°33.061 2°55.873 230.1 0.6 223 24.7
2010-04-22 10:47:35 51°33.056 2°55.861 205.1 0.6 221 24.1
2010-04-22 10:48:35 51°33.048 2°55.854 190.4 0.7 181 24.6
2010-04-22 10:49:35 51°33.041 2°55.85 183.1 0.1 173 24.8
2010-04-22 10:50:35 51°33.034 2°55.849 166.4 0.8 170 24.7
2010-04-22 10:51:35 51°33.022 2°55.86 135.2 0.9 118 24.7
2010-04-22 10:52:35 51°33.013 2°55.881 105.3 1 111 25
2010-04-22 10:53:35 51°33.014 2°55.909 77.7 1 75 24.4
2010-04-22 10:54:35 51°33.023 2°55.934 52.2 1.2 58 25.1
2010-04-22 10:55:35 51°33.038 2°55.952 32 1.1 35 25.8
2010-04-22 10:56:35 51°33.058 2°55.964 21.5 1.3 23 25.7
2010-04-22 10:57:35 51°33.079 2°55.97 4.9 1.2 359 25.3
2010-04-22 10:58:35 51°33.099 2°55.963 339.8 1.1 332 24.4
2010-04-22 10:59:35 51°33.112 2°55.944 310.7 1.2 302 25.1
2010-04-22 11:00:49 51°33.121 2°55.908 285.6 1.2 282 25.9
2010-04-22 11:02:46 51°33.143 2°55.851 334.1 1.1 318 25.8
2010-04-22 11:03:46 51°33.159 2°55.839 3 0.9 347 25.8
2010-04-22 11:04:46 51°33.173 2°55.843 34.8 0.8 36 26.6
2010-04-22 11:05:46 51°33.179 2°55.855 64.7 0.5 51 25.6
2010-04-22 11:06:46 51°33.18 2°55.865 74.9 0.4 110 25.2
2010-04-22 11:07:46 51°33.178 2°55.872 79.9 0.3 113 24.6
2010-04-22 11:08:46 51°33.176 2°55.878 79.9 0.1 116 24.2
2010-04-22 11:09:46 51°33.172 2°55.882 80.5 0.1 140 25
2010-04-22 11:10:46 51°33.168 2°55.884 82.8 0.1 178 24.6
2010-04-22 11:11:46 51°33.164 2°55.885 83.1 0.4 168 25.1
2010-04-22 11:12:46 51°33.16 2°55.885 82.6 0.4 177 25.6
2010-04-22 11:13:46 51°33.155 2°55.884 84.8 0.3 188 25.3
2010-04-22 11:14:46 51°33.15 2°55.883 88.6 0.4 191 25.8
2010-04-22 11:15:46 51°33.145 2°55.881 94.3 0.3 198 26.2
2010-04-22 11:16:46 51°33.14 2°55.879 98.4 0.1 230 25.9
2010-04-22 11:17:46 51°33.133 2°55.875 103.9 0.5 199 26.4
2010-04-22 11:18:46 51°33.126 2°55.871 107.4 0.2 209 25.9
2010-04-22 11:19:46 51°33.119 2°55.865 108.4 0.5 190 26.1
2010-04-22 11:20:46 51°33.112 2°55.86 109.8 0.3 216 25.6
2010-04-22 11:21:46 51°33.103 2°55.853 108.8 0.5 211 25.3
2010-04-22 11:22:46 51°33.095 2°55.844 109.7 0.7 216 24.8
2010-04-22 11:23:46 51°33.087 2°55.835 110.4 0.7 215 24.5
2010-04-22 11:24:46 51°33.078 2°55.824 116 0.6 210 23.7
2010-04-22 11:25:46 51°33.07 2°55.815 120.5 0.5 216 25.1
2010-04-22 11:26:46 51°33.062 2°55.805 122.1 0.8 216 25.2
2010-04-22 11:27:46 51°33.053 2°55.797 121.6 0.5 208 24.7
2010-04-22 11:28:46 51°33.044 2°55.788 122.4 0.7 211 24.6
2010-04-22 11:29:46 51°33.035 2°55.779 122.3 0.8 200 23.8
2010-04-22 11:30:46 51°33.026 2°55.802 84.5 1.5 98 23.5
2010-04-22 11:31:46 51°33.041 2°55.839 34.4 2.1 28 24.5
2010-04-22 11:32:46 51°33.123 2°55.873 14.1 7.7 10 25.1
2010-04-22 11:33:46 51°33.248 2°55.889 359.6 5.6 354 25.7
2010-04-22 11:34:46 51°33.305 2°55.865 339 2.3 324 26.5
2010-04-22 11:35:46 51°33.327 2°55.831 326.6 1.5 315 25.5
2010-04-22 11:36:46 51°33.34 2°55.801 323.8 1.1 295 26.2
2010-04-22 11:37:46 51°33.343 2°55.78 312.5 0.8 275 25.6
2010-04-22 11:38:46 51°33.341 2°55.766 305.5 0.6 217 25.3
2010-04-22 11:39:46 51°33.331 2°55.763 296.4 0.6 170 25.3
2010-04-22 11:40:46 51°33.321 2°55.765 285.8 0.8 180 25.5
2010-04-22 11:41:46 51°33.312 2°55.766 278.1 0.7 180 25.3
2010-04-22 11:42:46 51°33.302 2°55.766 270 0.8 181 24.1
2010-04-22 11:43:46 51°33.294 2°55.765 264.5 0.7 179 24
2010-04-22 11:44:46 51°33.285 2°55.763 259.4 0.4 208 23.7
2010-04-22 11:45:46 51°33.275 2°55.761 254.1 0.5 203 21.4
2010-04-22 11:46:46 51°33.266 2°55.756 249.5 0.5 201 24.8
2010-04-22 11:47:46 51°33.258 2°55.751 248.8 0.8 188 26.1
2010-04-22 11:48:46 51°33.25 2°55.746 245.7 0.5 209 25.9
2010-04-22 11:49:46 51°33.24 2°55.74 242.4 0.6 207 26.3
2010-04-22 11:50:46 51°33.231 2°55.735 237.4 0.6 196 26.6
2010-04-22 11:51:46 51°33.222 2°55.728 231.2 0.6 229 25.2
2010-04-22 11:52:46 51°33.212 2°55.721 227.1 0.5 205 24.7
2010-04-22 11:53:46 51°33.207 2°55.721 224.4 0.3 133 25.2
2010-04-22 11:54:46 51°33.205 2°55.724 216 0.6 204 24.8
2010-04-22 11:55:46 51°33.184 2°55.671 264.3 3.7 259 26.3
2010-04-22 11:56:46 51°33.216 2°55.592 347.5 3.9 345 26.1
2010-04-22 11:57:46 51°33.268 2°55.621 42.1 2.6 41 25.6
2010-04-22 11:58:46 51°33.29 2°55.67 59.5 2 62 26
2010-04-22 11:59:46 51°33.302 2°55.715 60.8 1.7 66 21.8
2010-04-22 12:00:46 51°33.309 2°55.749 58.3 1.2 64 24.1
2010-04-22 12:01:46 51°33.315 2°55.776 55.7 0.9 62 25.4
2010-04-22 12:02:46 51°33.318 2°55.794 52.1 0.6 72 25.6
2010-04-22 12:03:46 51°33.329 2°55.816 46.8 1.8 48 25.8
2010-04-22 12:04:46 51°33.35 2°55.86 51.3 2.1 58 26.4
2010-04-22 12:05:46 51°33.368 2°55.909 56.2 2.1 60 23.7
2010-04-22 12:06:46 51°33.378 2°55.95 59.2 1.4 72 25.2
2010-04-22 12:07:46 51°33.382 2°55.979 59.6 0.8 77 24.2
2010-04-22 12:08:46 51°33.382 2°55.998 58.5 0.6 97 25.2
2010-04-22 12:09:46 51°33.378 2°56.011 59.8 0.6 136 25.5
2010-04-22 12:10:46 51°33.371 2°56.018 60.6 0.4 159 25.1
2010-04-22 12:11:46 51°33.363 2°56.022 63.1 0.6 143 25.2
2010-04-22 12:12:46 51°33.353 2°56.038 91.1 1.2 146 25
2010-04-22 12:13:46 51°33.334 2°56.059 121.8 1.7 155 26
2010-04-22 12:14:46 51°33.303 2°56.072 154.7 2.1 178 27.3
2010-04-22 12:15:46 51°33.267 2°56.076 156 2.1 170 26.8
2010-04-22 12:16:46 51°33.237 2°56.093 122.5 1.8 150 26.4
2010-04-22 12:17:46 51°33.218 2°56.12 92.1 1.3 134 26.6
2010-04-22 12:18:46 51°33.204 2°56.139 85.1 0.9 141 26.4
2010-04-22 12:19:46 51°33.191 2°56.151 84.7 0.9 153 26.1
2010-04-22 12:20:46 51°33.177 2°56.158 85.5 0.9 169 26.1
2010-04-22 12:21:46 51°33.163 2°56.162 84.2 0.9 176 26.1
2010-04-22 12:22:46 51°33.149 2°56.162 83.6 0.9 180 25.8
2010-04-22 12:23:46 51°33.133 2°56.161 84.8 1.1 183 25.8
2010-04-22 12:24:46 51°33.117 2°56.157 86.9 1.2 188 24.8
2010-04-22 12:25:46 51°33.1 2°56.151 87.6 1.1 194 23.9
2010-04-22 12:26:46 51°33.084 2°56.144 87.9 1.1 196 24.1
2010-04-22 12:27:46 51°33.066 2°56.136 87.2 1.2 191 25.5
2010-04-22 12:28:46 51°33.05 2°56.128 87 0.9 206 24.7
2010-04-22 12:29:46 51°33.032 2°56.118 86 1.1 201 23.3
2010-04-22 12:30:46 51°33.015 2°56.107 89.1 1 203 25.3
2010-04-22 12:31:46 51°32.996 2°56.096 90 1.2 199 25.4
2010-04-22 12:32:46 51°32.977 2°56.085 90.1 1.3 201 24.8
2010-04-22 12:33:46 51°32.959 2°56.074 89.1 1.5 190 24.8
2010-04-22 12:34:46 51°32.944 2°56.08 65.5 0.9 127 25.1
2010-04-22 12:35:46 51°32.946 2°56.091 24.9 0.5 15 24.9
2010-04-22 12:36:46 51°33.019 2°56.079 358.9 7.6 352 25.1
2010-04-22 12:37:46 51°33.169 2°56.043 0.1 9.6 1 24.2
2010-04-22 12:38:46 51°33.334 2°56.118 15.7 10.8 11 26.8
2010-04-22 12:39:46 51°33.477 2°56.113 354.6 5.4 346 27.1
2010-04-22 12:40:46 51°33.536 2°56.088 0.9 2.6 346 27.9
2010-04-22 12:41:46 51°33.565 2°56.079 12.7 1.3 349 27.2
2010-04-22 12:42:46 51°33.579 2°56.075 20.7 0.6 342 26.9
2010-04-22 12:43:46 51°33.584 2°56.072 25.5 0.2 300 27
2010-04-22 12:44:46 51°33.584 2°56.067 26.5 0.2 220 27.4
2010-04-22 12:45:46 51°33.579 2°56.061 27.8 0.4 200 27.8
2010-04-22 12:46:46 51°33.572 2°56.052 29.1 0.6 204 27.3
2010-04-22 12:47:46 51°33.563 2°56.041 29.7 0.7 210 27.9
2010-04-22 12:48:46 51°33.553 2°56.03 33.1 0.8 207 28
2010-04-22 12:49:46 51°33.54 2°56.017 37.5 1 202 28.2
2010-04-22 12:50:46 51°33.525 2°56.004 45.1 1.1 216 27.1
2010-04-22 12:51:46 51°33.509 2°55.989 51.9 1.2 208 27.2
2010-04-22 12:52:46 51°33.491 2°55.973 59.3 1.2 209 25.8
2010-04-22 12:53:46 51°33.474 2°55.955 66.1 1.3 210 27.3
2010-04-22 12:54:46 51°33.455 2°55.937 75.6 1.3 216 26.5
2010-04-22 12:55:46 51°33.435 2°55.917 84.9 1.3 218 26.1
2010-04-22 12:56:46 51°33.416 2°55.897 93.8 1.4 213 26
2010-04-22 12:57:46 51°33.396 2°55.877 101.5 1.4 215 24.1
2010-04-22 12:58:46 51°33.376 2°55.857 108.3 1.4 211 24.2
2010-04-22 12:59:46 51°33.356 2°55.837 114.9 1.5 214 26.6
2010-04-22 13:00:46 51°33.337 2°55.817 121.1 1.4 208 26.5
2010-04-22 13:01:46 51°33.316 2°55.798 123.5 1.5 211 26
2010-04-22 13:02:46 51°33.295 2°55.78 122.5 1.7 203 24.4
2010-04-22 13:03:46 51°33.261 2°55.836 101 4.4 114 24.3
2010-04-22 13:04:46 51°33.247 2°55.985 85 7.3 91 26
2010-04-22 13:05:46 51°33.261 2°56.202 75.5 8.5 78 25.4
2010-04-22 13:06:46 51°33.302 2°56.421 64.9 8.5 68 26.6
2010-04-22 13:07:46 51°33.353 2°56.544 37.1 3.6 38 27
2010-04-22 13:08:46 51°33.39 2°56.569 17.7 1.8 8 26
2010-04-22 13:09:46 51°33.411 2°56.563 7.2 1 335 26.3
2010-04-22 13:10:46 51°33.421 2°56.549 2.7 0.7 300 26.3
2010-04-22 13:11:46 51°33.422 2°56.531 0.1 0.6 254 26.8
2010-04-22 13:12:46 51°33.417 2°56.512 357.1 0.9 244 26.5
2010-04-22 13:13:46 51°33.408 2°56.493 356.3 1 230 26.6
2010-04-22 13:14:46 51°33.397 2°56.474 355.6 1 224 25.9
2010-04-22 13:15:46 51°33.383 2°56.453 355.7 1.2 220 25.5
2010-04-22 13:16:46 51°33.366 2°56.433 356.8 1.3 218 25.3
2010-04-22 13:17:46 51°33.348 2°56.413 359.4 1.5 218 24.9
2010-04-22 13:18:46 51°33.328 2°56.393 2.5 1.4 211 27
2010-04-22 13:19:46 51°33.308 2°56.372 6.9 1.5 211 25.9
2010-04-22 13:20:46 51°33.285 2°56.352 11.7 1.6 211 25.7
2010-04-22 13:21:46 51°33.261 2°56.333 18.3 1.6 205 27.2
2010-04-22 13:22:46 51°33.236 2°56.312 27.7 1.7 208 26.7
2010-04-22 13:23:46 51°33.21 2°56.29 37 1.9 215 26.1
2010-04-22 13:24:46 51°33.183 2°56.266 45.7 1.9 206 26.1
2010-04-22 13:25:46 51°33.156 2°56.24 55.7 1.9 209 25.4
2010-04-22 13:26:46 51°33.131 2°56.212 65.2 1.8 217 25.7
2010-04-22 13:27:46 51°33.105 2°56.184 76.2 1.8 216 25
2010-04-22 13:28:46 51°33.08 2°56.156 89.4 1.9 215 24.5
2010-04-22 13:29:46 51°33.058 2°56.128 100.6 1.8 214 25.1
2010-04-22 13:30:46 51°33.035 2°56.102 109.1 1.5 217 22.3
2010-04-22 13:31:46 51°33.012 2°56.08 113.4 1.5 189 25.4
2010-04-22 13:32:46 51°32.988 2°56.103 84.2 1.6 131 25.3
2010-04-22 13:33:46 51°32.975 2°56.136 71.2 1.4 121 25.4
2010-04-22 13:34:46 51°32.968 2°56.166 62.8 1.1 104 25.2
2010-04-22 13:35:46 51°32.965 2°56.195 55.2 1.1 91 25.6
2010-04-22 13:36:46 51°32.968 2°56.221 49.3 0.9 77 24.7
2010-04-22 13:37:46 51°32.972 2°56.243 43.1 0.7 50 22.4
2010-04-22 13:38:46 51°32.979 2°56.262 37.6 0.7 54 23.5
2010-04-22 13:39:46 51°32.988 2°56.273 29.4 0.9 20 24.8
2010-04-22 13:40:46 51°33.008 2°56.279 19 1.4 3 24.9
2010-04-22 13:41:46 51°33.042 2°56.272 3.7 3.9 349 26.2
2010-04-22 13:42:46 51°33.135 2°56.18 325.2 9.1 312 25.3
2010-04-22 13:43:46 51°33.236 2°55.956 307.6 11.8 295 25.6
2010-04-22 13:44:46 51°33.284 2°55.612 285.2 13.6 279 26.8
2010-04-22 13:45:46 51°33.304 2°55.248 276.1 14 264 26.7
2010-04-22 13:46:46 51°33.273 2°54.879 260.7 13.9 247 22.7
2010-04-22 13:47:46 51°33.08 2°54.701 191.7 14.1 192 24.9
2010-04-22 13:48:46 51°32.845 2°54.638 184.4 14.5 185 24.8
2010-04-22 13:49:46 51°32.609 2°54.583 185 14.5 187 23.8
2010-04-22 13:50:46 51°32.364 2°54.527 184 14.8 189 22.5
2010-04-22 13:51:46 51°32.115 2°54.468 184.8 15.3 187 22
2010-04-22 13:52:46 51°31.865 2°54.412 184.6 14.8 187 20.9
2010-04-22 13:53:46 51°31.617 2°54.358 185.4 14.2 185 18.5
2010-04-22 13:54:46 51°31.368 2°54.3 184.7 15.5 188 20
2010-04-22 13:55:46 51°31.118 2°54.244 185 15.3 189 19.1
2010-04-22 13:56:46 51°30.868 2°54.192 185.5 14.5 184 17.9
2010-04-22 13:57:46 51°30.619 2°54.135 183.9 14.9 183 29.2
2010-04-22 13:58:46 51°30.375 2°54.077 184.6 14.8 193 34.4
2010-04-22 13:59:46 51°30.141 2°54.004 186.3 14.7 188 30.9
2010-04-22 14:00:46 51°29.891 2°53.868 201.3 15.7 201 31.4
2010-04-22 14:01:46 51°29.659 2°53.7 202.3 14.8 202 30.9
2010-04-22 14:02:46 51°29.429 2°53.532 204 15.4 203 29.9
2010-04-22 14:03:46 51°29.213 2°53.321 208.4 14.8 207 29.2
2010-04-22 14:04:46 51°28.978 2°53.18 189.5 15.2 193 27.1
2010-04-22 14:05:46 51°28.728 2°53.145 178.1 15.2 185 26
2010-04-22 14:06:46 51°28.48 2°53.123 177.9 14.6 183 24.1
2010-04-22 14:07:46 51°28.231 2°53.093 179.5 14.9 183 22.2
2010-04-22 14:08:46 51°27.981 2°53.063 179.4 14.7 180 21.8
2010-04-22 14:09:46 51°27.731 2°53.034 180.1 15.1 182 20.1
2010-04-22 14:10:46 51°27.481 2°53.006 180 14.9 182 19.6
2010-04-22 14:11:46 51°27.233 2°52.975 181.9 14.5 188 22.7
2010-04-22 14:12:46 51°26.983 2°52.94 180.9 14.8 186 27.8
2010-04-22 14:13:46 51°26.733 2°52.908 180.8 15.1 188 28.3
2010-04-22 14:14:46 51°26.483 2°52.873 180.1 15.2 185 26.5
2010-04-22 14:15:46 51°26.231 2°52.833 180.4 15.6 186 25.6
2010-04-22 14:16:46 51°25.979 2°52.794 180.1 15.7 185 27.2
2010-04-22 14:17:46 51°25.729 2°52.755 180.2 14.8 185 25.9
2010-04-22 14:18:46 51°25.478 2°52.713 180.2 15.5 186 24.1
2010-04-22 14:19:46 51°25.227 2°52.673 180.3 15.5 188 23
2010-04-22 14:20:46 51°24.979 2°52.638 179.6 14.9 185 22
2010-04-22 14:21:46 51°24.732 2°52.604 181.1 14.7 182 20.9
2010-04-22 14:22:46 51°24.484 2°52.58 175.6 15.2 180 20.3
2010-04-22 14:23:46 51°24.242 2°52.614 169.8 14.6 173 18.4
2010-04-22 14:24:46 51°23.997 2°52.657 169.1 14.7 174 17
2010-04-22 14:25:46 51°23.753 2°52.706 167 14.8 171 18.7
2010-04-22 14:26:46 51°23.509 2°52.745 169.2 15.1 176 20.9
2010-04-22 14:27:46 51°23.262 2°52.777 169.8 14.9 179 20.7
2010-04-22 14:28:46 51°23.014 2°52.811 168.8 14.7 180 23
2010-04-22 14:29:46 51°22.767 2°52.848 168.5 15.1 177 23
2010-04-22 14:30:46 51°22.518 2°52.846 180.3 15.2 189 22.7
2010-04-22 14:31:46 51°22.271 2°52.81 182.3 14.8 184 23.9
2010-04-22 14:32:46 51°22.028 2°52.766 181.4 15 187 23.1
2010-04-22 14:33:46 51°21.783 2°52.723 181 14.6 183 20.5
2010-04-22 14:34:46 51°21.54 2°52.686 180.3 14.8 186 18.2
2010-04-22 14:35:46 51°21.296 2°52.654 179.8 14.5 183 16.6
2010-04-22 14:36:46 51°21.05 2°52.621 180.4 14.8 183 15
2010-04-22 14:37:46 51°20.803 2°52.586 180.7 15 185 14.8
2010-04-22 14:38:46 51°20.557 2°52.554 180.4 14.6 184 15.6
2010-04-22 14:39:46 51°20.31 2°52.52 180.1 15.1 185 16
2010-04-22 14:40:46 51°20.062 2°52.486 180.1 15 186 16.3
2010-04-22 14:41:46 51°19.814 2°52.455 179.2 15.1 184 15.9
2010-04-22 14:42:46 51°19.566 2°52.419 179.4 15.5 186 15.6
2010-04-22 14:43:46 51°19.32 2°52.386 180.3 14.4 185 14.8
2010-04-22 14:44:46 51°19.074 2°52.352 181.1 15.4 185 13.9
2010-04-22 14:45:46 51°18.828 2°52.32 180.8 15.2 186 12.7
2010-04-22 14:46:46 51°18.581 2°52.292 179.4 15 183 11.6
2010-04-22 14:47:46 51°18.338 2°52.264 179.9 14.7 183 11.2
2010-04-22 14:48:46 51°18.09 2°52.237 181.1 14.9 184 11.3
2010-04-22 14:49:46 51°17.845 2°52.211 181.4 15 184 10.9
2010-04-22 14:50:46 51°17.599 2°52.194 178.2 14.6 178 11.4
2010-04-22 14:51:46 51°17.353 2°52.208 170.3 14.5 174 11.3
2010-04-22 14:52:46 51°17.114 2°52.292 159.3 14.7 163 10.4
2010-04-22 14:53:46 51°16.892 2°52.424 152.5 14.3 157 9.6
2010-04-22 14:54:46 51°16.683 2°52.61 147.6 14.6 153 10.4
2010-04-22 14:55:46 51°16.472 2°52.788 149.5 14.6 152 11.8
2010-04-22 14:56:46 51°16.265 2°52.968 148.5 14.5 151 12.3
2010-04-22 14:57:46 51°16.056 2°53.142 148.5 14 153 12
2010-04-22 14:58:46 51°15.854 2°53.333 141.6 14.3 143 11.7
2010-04-22 14:59:46 51°15.673 2°53.563 133.6 13.7 138 11.4
2010-04-22 15:00:46 51°15.502 2°53.804 135 13.8 139 10.9
2010-04-22 15:01:46 51°15.331 2°54.046 135.1 13.9 138 10.6
2010-04-22 15:02:46 51°15.155 2°54.285 134.8 14 138 10.4
2010-04-22 15:03:46 51°14.976 2°54.505 143.6 13.5 148 9.8
2010-04-22 15:04:46 51°14.783 2°54.709 143.2 13.7 147 12
2010-04-22 15:05:46 51°14.596 2°54.899 142.2 12.9 147 11.9
2010-04-22 15:06:46 51°14.424 2°55.094 140.8 12.9 141 10.3
2010-04-22 15:07:46 51°14.272 2°55.273 144.8 9.6 146 10.8
2010-04-22 15:08:49 51°14.157 2°55.383 151.3 6.6 153 4.6
2010-04-22 15:09:49 51°14.065 2°55.457 154 6.5 155 10.7
2010-04-22 15:10:50 51°13.947 2°55.542 154.8 8.2 155 -999
2010-04-22 15:11:49 51°13.829 2°55.633 154.1 7.8 153 -999
2010-04-22 15:12:25 51°13.769 2°55.692 139.3 0.1 325 -999
2010-04-22 15:13:49 51°13.769 2°55.692 117.4 -999 319 -999
2010-04-22 15:14:47 51°13.665 2°55.946 109.6 2.5 113 6.8